sensor_id;sensor_type;location;lat;lon;timestamp;P1;durP1;ratioP1;P2;durP2;ratioP2
26908;SDS011;14477;51.038;4.588;2023-07-08T00:00:21;4.57;;;2.03;;
26908;SDS011;14477;51.038;4.588;2023-07-08T00:02:48;3.10;;;1.90;;
26908;SDS011;14477;51.038;4.588;2023-07-08T00:05:16;2.55;;;1.83;;
26908;SDS011;14477;51.038;4.588;2023-07-08T00:07:43;2.88;;;2.10;;
26908;SDS011;14477;51.038;4.588;2023-07-08T00:10:16;3.47;;;2.10;;
26908;SDS011;14477;51.038;4.588;2023-07-08T00:12:45;3.55;;;2.20;;
26908;SDS011;14477;51.038;4.588;2023-07-08T00:15:13;3.57;;;2.30;;
26908;SDS011;14477;51.038;4.588;2023-07-08T00:17:39;4.82;;;2.10;;
26908;SDS011;14477;51.038;4.588;2023-07-08T00:20:18;3.30;;;2.10;;
26908;SDS011;14477;51.038;4.588;2023-07-08T00:22:48;3.38;;;2.22;;
26908;SDS011;14477;51.038;4.588;2023-07-08T00:25:16;2.70;;;2.00;;
26908;SDS011;14477;51.038;4.588;2023-07-08T00:27:44;2.88;;;1.88;;
26908;SDS011;14477;51.038;4.588;2023-07-08T00:32:51;3.25;;;2.22;;
26908;SDS011;14477;51.038;4.588;2023-07-08T00:35:34;3.22;;;2.10;;
26908;SDS011;14477;51.038;4.588;2023-07-08T00:40:51;3.10;;;2.00;;
26908;SDS011;14477;51.038;4.588;2023-07-08T00:43:43;3.47;;;2.10;;
26908;SDS011;14477;51.038;4.588;2023-07-08T00:51:36;3.30;;;2.00;;
26908;SDS011;14477;51.038;4.588;2023-07-08T00:54:04;4.18;;;2.28;;
26908;SDS011;14477;51.038;4.588;2023-07-08T00:59:09;3.50;;;2.20;;
26908;SDS011;14477;51.038;4.588;2023-07-08T01:01:59;4.20;;;2.30;;
26908;SDS011;14477;51.038;4.588;2023-07-08T01:04:29;6.20;;;2.30;;
26908;SDS011;14477;51.038;4.588;2023-07-08T01:06:59;3.35;;;2.00;;
26908;SDS011;14477;51.038;4.588;2023-07-08T01:09:32;2.83;;;2.05;;
26908;SDS011;14477;51.038;4.588;2023-07-08T01:12:03;2.90;;;1.95;;
26908;SDS011;14477;51.038;4.588;2023-07-08T01:14:32;3.13;;;1.98;;
26908;SDS011;14477;51.038;4.588;2023-07-08T01:17:01;4.10;;;2.10;;
26908;SDS011;14477;51.038;4.588;2023-07-08T01:19:27;3.15;;;2.10;;
26908;SDS011;14477;51.038;4.588;2023-07-08T01:24:24;4.05;;;2.40;;
26908;SDS011;14477;51.038;4.588;2023-07-08T01:26:51;3.53;;;2.20;;
26908;SDS011;14477;51.038;4.588;2023-07-08T01:29:18;3.38;;;1.98;;
26908;SDS011;14477;51.038;4.588;2023-07-08T01:31:44;3.30;;;2.20;;
26908;SDS011;14477;51.038;4.588;2023-07-08T01:34:13;3.50;;;2.23;;
26908;SDS011;14477;51.038;4.588;2023-07-08T01:36:43;2.88;;;2.10;;
26908;SDS011;14477;51.038;4.588;2023-07-08T01:39:13;3.90;;;2.13;;
26908;SDS011;14477;51.038;4.588;2023-07-08T01:41:42;3.90;;;2.00;;
26908;SDS011;14477;51.038;4.588;2023-07-08T01:44:30;3.00;;;2.15;;
26908;SDS011;14477;51.038;4.588;2023-07-08T01:47:17;3.40;;;2.00;;
26908;SDS011;14477;51.038;4.588;2023-07-08T01:49:45;2.97;;;2.05;;
26908;SDS011;14477;51.038;4.588;2023-07-08T01:52:12;3.50;;;2.08;;
26908;SDS011;14477;51.038;4.588;2023-07-08T01:54:40;3.67;;;2.17;;
26908;SDS011;14477;51.038;4.588;2023-07-08T01:57:06;2.80;;;2.23;;
26908;SDS011;14477;51.038;4.588;2023-07-08T01:59:32;4.70;;;2.45;;
26908;SDS011;14477;51.038;4.588;2023-07-08T02:01:57;3.17;;;2.23;;
26908;SDS011;14477;51.038;4.588;2023-07-08T02:04:24;4.20;;;2.25;;
26908;SDS011;14477;51.038;4.588;2023-07-08T02:06:54;4.45;;;2.25;;
26908;SDS011;14477;51.038;4.588;2023-07-08T02:09:21;3.92;;;2.50;;
26908;SDS011;14477;51.038;4.588;2023-07-08T02:11:47;3.50;;;2.23;;
26908;SDS011;14477;51.038;4.588;2023-07-08T02:14:13;3.15;;;2.28;;
26908;SDS011;14477;51.038;4.588;2023-07-08T02:16:39;4.83;;;2.10;;
26908;SDS011;14477;51.038;4.588;2023-07-08T02:19:04;4.10;;;2.38;;
26908;SDS011;14477;51.038;4.588;2023-07-08T02:21:30;4.00;;;2.30;;
26908;SDS011;14477;51.038;4.588;2023-07-08T02:23:56;3.10;;;2.20;;
26908;SDS011;14477;51.038;4.588;2023-07-08T02:26:23;3.10;;;2.10;;
26908;SDS011;14477;51.038;4.588;2023-07-08T02:28:49;4.30;;;2.60;;
26908;SDS011;14477;51.038;4.588;2023-07-08T02:31:15;3.10;;;2.17;;
26908;SDS011;14477;51.038;4.588;2023-07-08T02:33:40;3.30;;;2.22;;
26908;SDS011;14477;51.038;4.588;2023-07-08T02:36:06;3.23;;;2.30;;
26908;SDS011;14477;51.038;4.588;2023-07-08T02:38:32;3.30;;;2.25;;
26908;SDS011;14477;51.038;4.588;2023-07-08T02:40:58;3.70;;;2.28;;
26908;SDS011;14477;51.038;4.588;2023-07-08T02:43:24;4.50;;;2.47;;
26908;SDS011;14477;51.038;4.588;2023-07-08T02:45:50;3.75;;;2.40;;
26908;SDS011;14477;51.038;4.588;2023-07-08T02:48:19;3.58;;;2.42;;
26908;SDS011;14477;51.038;4.588;2023-07-08T02:50:45;4.00;;;2.57;;
26908;SDS011;14477;51.038;4.588;2023-07-08T02:53:11;3.58;;;2.22;;
26908;SDS011;14477;51.038;4.588;2023-07-08T02:55:38;3.70;;;2.05;;
26908;SDS011;14477;51.038;4.588;2023-07-08T02:58:04;4.25;;;2.30;;
26908;SDS011;14477;51.038;4.588;2023-07-08T03:00:30;3.67;;;2.30;;
26908;SDS011;14477;51.038;4.588;2023-07-08T03:02:56;3.45;;;2.33;;
26908;SDS011;14477;51.038;4.588;2023-07-08T03:05:21;3.13;;;2.20;;
26908;SDS011;14477;51.038;4.588;2023-07-08T03:07:47;3.77;;;2.00;;
26908;SDS011;14477;51.038;4.588;2023-07-08T03:10:13;3.22;;;2.20;;
26908;SDS011;14477;51.038;4.588;2023-07-08T03:12:38;3.40;;;2.20;;
26908;SDS011;14477;51.038;4.588;2023-07-08T03:15:04;3.83;;;2.37;;
26908;SDS011;14477;51.038;4.588;2023-07-08T03:17:30;3.28;;;2.13;;
26908;SDS011;14477;51.038;4.588;2023-07-08T03:19:56;4.03;;;2.33;;
26908;SDS011;14477;51.038;4.588;2023-07-08T03:22:22;3.83;;;2.38;;
26908;SDS011;14477;51.038;4.588;2023-07-08T03:24:47;3.73;;;2.30;;
26908;SDS011;14477;51.038;4.588;2023-07-08T03:27:13;4.15;;;2.30;;
26908;SDS011;14477;51.038;4.588;2023-07-08T03:29:40;3.13;;;2.10;;
26908;SDS011;14477;51.038;4.588;2023-07-08T03:32:07;3.75;;;2.50;;
26908;SDS011;14477;51.038;4.588;2023-07-08T03:34:35;3.20;;;2.20;;
26908;SDS011;14477;51.038;4.588;2023-07-08T03:37:01;3.63;;;2.40;;
26908;SDS011;14477;51.038;4.588;2023-07-08T03:39:27;3.55;;;2.30;;
26908;SDS011;14477;51.038;4.588;2023-07-08T03:41:53;3.63;;;2.30;;
26908;SDS011;14477;51.038;4.588;2023-07-08T03:44:19;3.10;;;2.20;;
26908;SDS011;14477;51.038;4.588;2023-07-08T03:46:47;4.20;;;2.28;;
26908;SDS011;14477;51.038;4.588;2023-07-08T03:49:20;4.50;;;2.50;;
26908;SDS011;14477;51.038;4.588;2023-07-08T03:51:49;3.30;;;2.20;;
26908;SDS011;14477;51.038;4.588;2023-07-08T03:54:19;3.47;;;2.10;;
26908;SDS011;14477;51.038;4.588;2023-07-08T03:56:47;3.55;;;2.28;;
26908;SDS011;14477;51.038;4.588;2023-07-08T03:59:13;3.30;;;2.15;;
26908;SDS011;14477;51.038;4.588;2023-07-08T04:01:38;3.47;;;2.40;;
26908;SDS011;14477;51.038;4.588;2023-07-08T04:04:06;3.67;;;2.30;;
26908;SDS011;14477;51.038;4.588;2023-07-08T04:06:33;4.20;;;2.38;;
26908;SDS011;14477;51.038;4.588;2023-07-08T04:08:59;3.90;;;2.40;;
26908;SDS011;14477;51.038;4.588;2023-07-08T04:11:25;4.20;;;2.45;;
26908;SDS011;14477;51.038;4.588;2023-07-08T04:13:51;3.90;;;2.20;;
26908;SDS011;14477;51.038;4.588;2023-07-08T04:18:54;3.50;;;2.42;;
26908;SDS011;14477;51.038;4.588;2023-07-08T04:21:21;3.47;;;2.20;;
26908;SDS011;14477;51.038;4.588;2023-07-08T04:23:48;3.75;;;2.60;;
26908;SDS011;14477;51.038;4.588;2023-07-08T04:26:14;4.22;;;2.40;;
26908;SDS011;14477;51.038;4.588;2023-07-08T04:28:41;3.97;;;2.40;;
26908;SDS011;14477;51.038;4.588;2023-07-08T04:31:07;4.13;;;2.38;;
26908;SDS011;14477;51.038;4.588;2023-07-08T04:33:33;5.78;;;2.40;;
26908;SDS011;14477;51.038;4.588;2023-07-08T04:35:58;4.37;;;2.60;;
26908;SDS011;14477;51.038;4.588;2023-07-08T04:38:25;4.75;;;2.47;;
26908;SDS011;14477;51.038;4.588;2023-07-08T04:40:52;4.00;;;2.60;;
26908;SDS011;14477;51.038;4.588;2023-07-08T04:43:19;3.42;;;2.58;;
26908;SDS011;14477;51.038;4.588;2023-07-08T04:45:46;5.83;;;2.43;;
26908;SDS011;14477;51.038;4.588;2023-07-08T04:48:18;4.72;;;2.60;;
26908;SDS011;14477;51.038;4.588;2023-07-08T04:50:47;3.60;;;2.53;;
26908;SDS011;14477;51.038;4.588;2023-07-08T04:53:14;4.57;;;2.38;;
26908;SDS011;14477;51.038;4.588;2023-07-08T04:55:41;4.47;;;2.40;;
26908;SDS011;14477;51.038;4.588;2023-07-08T04:58:10;4.90;;;2.50;;
26908;SDS011;14477;51.038;4.588;2023-07-08T05:00:36;3.72;;;2.63;;
26908;SDS011;14477;51.038;4.588;2023-07-08T05:03:02;3.38;;;2.67;;
26908;SDS011;14477;51.038;4.588;2023-07-08T05:05:28;3.83;;;2.78;;
26908;SDS011;14477;51.038;4.588;2023-07-08T05:07:53;4.93;;;2.60;;
26908;SDS011;14477;51.038;4.588;2023-07-08T05:10:19;3.38;;;2.40;;
26908;SDS011;14477;51.038;4.588;2023-07-08T05:12:45;4.40;;;2.50;;
26908;SDS011;14477;51.038;4.588;2023-07-08T05:15:12;5.77;;;2.90;;
26908;SDS011;14477;51.038;4.588;2023-07-08T05:17:39;4.15;;;2.78;;
26908;SDS011;14477;51.038;4.588;2023-07-08T05:20:06;3.38;;;2.53;;
26908;SDS011;14477;51.038;4.588;2023-07-08T05:22:34;3.83;;;2.60;;
26908;SDS011;14477;51.038;4.588;2023-07-08T05:25:00;4.10;;;2.70;;
26908;SDS011;14477;51.038;4.588;2023-07-08T05:27:26;3.70;;;2.72;;
26908;SDS011;14477;51.038;4.588;2023-07-08T05:29:52;3.90;;;2.80;;
26908;SDS011;14477;51.038;4.588;2023-07-08T05:32:18;3.80;;;2.38;;
26908;SDS011;14477;51.038;4.588;2023-07-08T05:34:44;4.13;;;2.53;;
26908;SDS011;14477;51.038;4.588;2023-07-08T05:37:11;3.80;;;2.88;;
26908;SDS011;14477;51.038;4.588;2023-07-08T05:39:37;4.55;;;2.63;;
26908;SDS011;14477;51.038;4.588;2023-07-08T05:42:03;4.60;;;2.65;;
26908;SDS011;14477;51.038;4.588;2023-07-08T05:44:29;4.97;;;2.90;;
26908;SDS011;14477;51.038;4.588;2023-07-08T05:46:55;4.25;;;2.80;;
26908;SDS011;14477;51.038;4.588;2023-07-08T05:49:21;3.63;;;2.70;;
26908;SDS011;14477;51.038;4.588;2023-07-08T05:51:47;4.13;;;2.70;;
26908;SDS011;14477;51.038;4.588;2023-07-08T05:54:13;4.72;;;2.90;;
26908;SDS011;14477;51.038;4.588;2023-07-08T05:56:39;3.85;;;2.50;;
26908;SDS011;14477;51.038;4.588;2023-07-08T05:59:05;3.80;;;2.92;;
26908;SDS011;14477;51.038;4.588;2023-07-08T06:01:32;4.20;;;2.83;;
26908;SDS011;14477;51.038;4.588;2023-07-08T06:03:58;4.95;;;2.88;;
26908;SDS011;14477;51.038;4.588;2023-07-08T06:06:24;3.60;;;2.40;;
26908;SDS011;14477;51.038;4.588;2023-07-08T06:08:51;4.32;;;2.70;;
26908;SDS011;14477;51.038;4.588;2023-07-08T06:11:17;3.50;;;2.70;;
26908;SDS011;14477;51.038;4.588;2023-07-08T06:13:43;3.63;;;2.60;;
26908;SDS011;14477;51.038;4.588;2023-07-08T06:16:08;3.90;;;2.60;;
26908;SDS011;14477;51.038;4.588;2023-07-08T06:18:34;4.33;;;2.70;;
26908;SDS011;14477;51.038;4.588;2023-07-08T06:21:00;4.30;;;2.30;;
26908;SDS011;14477;51.038;4.588;2023-07-08T06:23:26;3.42;;;2.33;;
26908;SDS011;14477;51.038;4.588;2023-07-08T06:25:52;3.57;;;2.60;;
26908;SDS011;14477;51.038;4.588;2023-07-08T06:28:19;5.05;;;2.70;;
26908;SDS011;14477;51.038;4.588;2023-07-08T06:30:45;3.75;;;2.70;;
26908;SDS011;14477;51.038;4.588;2023-07-08T06:33:11;4.00;;;2.70;;
26908;SDS011;14477;51.038;4.588;2023-07-08T06:35:37;4.30;;;2.67;;
26908;SDS011;14477;51.038;4.588;2023-07-08T06:38:05;3.27;;;2.30;;
26908;SDS011;14477;51.038;4.588;2023-07-08T06:40:32;4.85;;;2.60;;
26908;SDS011;14477;51.038;4.588;2023-07-08T06:42:58;3.60;;;2.50;;
26908;SDS011;14477;51.038;4.588;2023-07-08T06:45:24;4.03;;;2.50;;
26908;SDS011;14477;51.038;4.588;2023-07-08T06:47:50;3.93;;;2.70;;
26908;SDS011;14477;51.038;4.588;2023-07-08T06:50:16;4.05;;;2.60;;
26908;SDS011;14477;51.038;4.588;2023-07-08T06:52:42;4.83;;;2.40;;
26908;SDS011;14477;51.038;4.588;2023-07-08T06:55:08;4.57;;;2.27;;
26908;SDS011;14477;51.038;4.588;2023-07-08T06:57:35;4.57;;;2.45;;
26908;SDS011;14477;51.038;4.588;2023-07-08T07:00:03;3.70;;;2.60;;
26908;SDS011;14477;51.038;4.588;2023-07-08T07:02:31;4.33;;;2.70;;
26908;SDS011;14477;51.038;4.588;2023-07-08T07:04:58;3.85;;;2.15;;
26908;SDS011;14477;51.038;4.588;2023-07-08T07:07:23;4.40;;;2.50;;
26908;SDS011;14477;51.038;4.588;2023-07-08T07:09:49;3.97;;;2.83;;
26908;SDS011;14477;51.038;4.588;2023-07-08T07:12:15;4.28;;;2.70;;
26908;SDS011;14477;51.038;4.588;2023-07-08T07:14:41;4.63;;;2.72;;
26908;SDS011;14477;51.038;4.588;2023-07-08T07:17:07;4.50;;;2.90;;
26908;SDS011;14477;51.038;4.588;2023-07-08T07:19:32;4.00;;;2.40;;
26908;SDS011;14477;51.038;4.588;2023-07-08T07:21:58;4.23;;;2.80;;
26908;SDS011;14477;51.038;4.588;2023-07-08T07:24:24;3.92;;;2.60;;
26908;SDS011;14477;51.038;4.588;2023-07-08T07:26:50;3.57;;;2.70;;
26908;SDS011;14477;51.038;4.588;2023-07-08T07:29:16;4.07;;;2.78;;
26908;SDS011;14477;51.038;4.588;2023-07-08T07:31:42;5.03;;;3.17;;
26908;SDS011;14477;51.038;4.588;2023-07-08T07:34:09;4.05;;;2.72;;
26908;SDS011;14477;51.038;4.588;2023-07-08T07:36:35;3.83;;;2.63;;
26908;SDS011;14477;51.038;4.588;2023-07-08T07:39:01;4.13;;;2.88;;
26908;SDS011;14477;51.038;4.588;2023-07-08T07:41:27;3.93;;;2.73;;
26908;SDS011;14477;51.038;4.588;2023-07-08T07:43:52;4.47;;;2.85;;
26908;SDS011;14477;51.038;4.588;2023-07-08T07:46:18;3.93;;;2.90;;
26908;SDS011;14477;51.038;4.588;2023-07-08T07:48:44;3.70;;;2.80;;
26908;SDS011;14477;51.038;4.588;2023-07-08T07:51:09;4.90;;;3.00;;
26908;SDS011;14477;51.038;4.588;2023-07-08T07:53:38;4.55;;;3.00;;
26908;SDS011;14477;51.038;4.588;2023-07-08T07:56:05;3.80;;;2.70;;
26908;SDS011;14477;51.038;4.588;2023-07-08T07:58:31;4.57;;;2.97;;
26908;SDS011;14477;51.038;4.588;2023-07-08T08:00:57;4.03;;;2.60;;
26908;SDS011;14477;51.038;4.588;2023-07-08T08:03:23;4.40;;;2.95;;
26908;SDS011;14477;51.038;4.588;2023-07-08T08:05:49;3.28;;;2.65;;
26908;SDS011;14477;51.038;4.588;2023-07-08T08:08:16;4.32;;;2.95;;
26908;SDS011;14477;51.038;4.588;2023-07-08T08:10:42;5.07;;;2.75;;
26908;SDS011;14477;51.038;4.588;2023-07-08T08:13:09;4.33;;;2.80;;
26908;SDS011;14477;51.038;4.588;2023-07-08T08:15:34;5.15;;;2.78;;
26908;SDS011;14477;51.038;4.588;2023-07-08T08:18:00;3.85;;;2.60;;
26908;SDS011;14477;51.038;4.588;2023-07-08T08:20:26;3.38;;;2.70;;
26908;SDS011;14477;51.038;4.588;2023-07-08T08:22:53;4.37;;;2.87;;
26908;SDS011;14477;51.038;4.588;2023-07-08T08:25:20;4.03;;;2.97;;
26908;SDS011;14477;51.038;4.588;2023-07-08T08:27:47;4.13;;;2.95;;
26908;SDS011;14477;51.038;4.588;2023-07-08T08:30:13;4.93;;;3.22;;
26908;SDS011;14477;51.038;4.588;2023-07-08T08:32:38;5.10;;;3.55;;
26908;SDS011;14477;51.038;4.588;2023-07-08T08:35:04;4.20;;;3.30;;
26908;SDS011;14477;51.038;4.588;2023-07-08T08:37:30;4.00;;;3.30;;
26908;SDS011;14477;51.038;4.588;2023-07-08T08:39:56;4.23;;;3.37;;
26908;SDS011;14477;51.038;4.588;2023-07-08T08:44:54;5.40;;;4.03;;
26908;SDS011;14477;51.038;4.588;2023-07-08T08:47:30;5.55;;;3.72;;
26908;SDS011;14477;51.038;4.588;2023-07-08T08:52:36;4.70;;;3.65;;
26908;SDS011;14477;51.038;4.588;2023-07-08T08:55:07;5.78;;;3.88;;
26908;SDS011;14477;51.038;4.588;2023-07-08T08:57:39;4.90;;;3.92;;
26908;SDS011;14477;51.038;4.588;2023-07-08T09:00:12;5.05;;;3.60;;
26908;SDS011;14477;51.038;4.588;2023-07-08T09:05:46;4.70;;;3.50;;
26908;SDS011;14477;51.038;4.588;2023-07-08T09:08:20;4.35;;;3.95;;
26908;SDS011;14477;51.038;4.588;2023-07-08T09:13:33;7.85;;;4.65;;
26908;SDS011;14477;51.038;4.588;2023-07-08T09:21:58;4.38;;;3.97;;
26908;SDS011;14477;51.038;4.588;2023-07-08T09:24:32;4.80;;;3.75;;
26908;SDS011;14477;51.038;4.588;2023-07-08T09:27:07;4.90;;;4.30;;
26908;SDS011;14477;51.038;4.588;2023-07-08T09:29:33;6.17;;;4.40;;
26908;SDS011;14477;51.038;4.588;2023-07-08T09:32:01;5.03;;;4.45;;
26908;SDS011;14477;51.038;4.588;2023-07-08T09:34:52;4.72;;;4.20;;
26908;SDS011;14477;51.038;4.588;2023-07-08T09:37:31;5.75;;;4.60;;
26908;SDS011;14477;51.038;4.588;2023-07-08T09:40:00;5.25;;;4.38;;
26908;SDS011;14477;51.038;4.588;2023-07-08T09:42:31;4.87;;;4.33;;
26908;SDS011;14477;51.038;4.588;2023-07-08T09:44:59;5.15;;;4.43;;
26908;SDS011;14477;51.038;4.588;2023-07-08T09:47:32;5.30;;;4.80;;
26908;SDS011;14477;51.038;4.588;2023-07-08T09:50:01;5.00;;;4.50;;
26908;SDS011;14477;51.038;4.588;2023-07-08T09:52:40;5.60;;;4.72;;
26908;SDS011;14477;51.038;4.588;2023-07-08T09:55:10;5.17;;;4.67;;
26908;SDS011;14477;51.038;4.588;2023-07-08T09:57:36;5.18;;;4.68;;
26908;SDS011;14477;51.038;4.588;2023-07-08T10:00:08;4.97;;;4.47;;
26908;SDS011;14477;51.038;4.588;2023-07-08T10:05:22;5.53;;;5.00;;
26908;SDS011;14477;51.038;4.588;2023-07-08T10:07:52;5.33;;;4.83;;
26908;SDS011;14477;51.038;4.588;2023-07-08T10:10:27;5.32;;;4.82;;
26908;SDS011;14477;51.038;4.588;2023-07-08T10:18:45;5.88;;;5.38;;
26908;SDS011;14477;51.038;4.588;2023-07-08T10:24:15;5.47;;;4.97;;
26908;SDS011;14477;51.038;4.588;2023-07-08T10:27:07;5.43;;;4.93;;
26908;SDS011;14477;51.038;4.588;2023-07-08T10:46:16;6.07;;;5.53;;
26908;SDS011;14477;51.038;4.588;2023-07-08T10:51:29;5.85;;;5.22;;
26908;SDS011;14477;51.038;4.588;2023-07-08T10:54:33;5.80;;;5.20;;
26908;SDS011;14477;51.038;4.588;2023-07-08T11:03:30;5.78;;;5.22;;
26908;SDS011;14477;51.038;4.588;2023-07-08T11:08:40;5.45;;;4.95;;
26908;SDS011;14477;51.038;4.588;2023-07-08T11:11:28;5.68;;;5.18;;
26908;SDS011;14477;51.038;4.588;2023-07-08T11:14:10;6.23;;;5.63;;
26908;SDS011;14477;51.038;4.588;2023-07-08T11:16:48;5.93;;;5.43;;
26908;SDS011;14477;51.038;4.588;2023-07-08T11:19:35;6.10;;;5.55;;
26908;SDS011;14477;51.038;4.588;2023-07-08T11:22:11;5.70;;;5.20;;
26908;SDS011;14477;51.038;4.588;2023-07-08T11:24:46;5.88;;;5.38;;
26908;SDS011;14477;51.038;4.588;2023-07-08T11:27:19;6.23;;;5.73;;
26908;SDS011;14477;51.038;4.588;2023-07-08T11:29:59;6.88;;;6.18;;
26908;SDS011;14477;51.038;4.588;2023-07-08T11:32:30;6.00;;;5.40;;
26908;SDS011;14477;51.038;4.588;2023-07-08T11:34:58;6.53;;;5.93;;
26908;SDS011;14477;51.038;4.588;2023-07-08T11:37:25;6.10;;;5.50;;
26908;SDS011;14477;51.038;4.588;2023-07-08T11:42:49;5.72;;;5.10;;
26908;SDS011;14477;51.038;4.588;2023-07-08T11:47:50;5.95;;;5.38;;
26908;SDS011;14477;51.038;4.588;2023-07-08T11:50:19;6.50;;;5.80;;
26908;SDS011;14477;51.038;4.588;2023-07-08T11:53:03;5.30;;;4.80;;
26908;SDS011;14477;51.038;4.588;2023-07-08T11:55:37;5.90;;;5.40;;
26908;SDS011;14477;51.038;4.588;2023-07-08T11:58:22;5.90;;;5.30;;
26908;SDS011;14477;51.038;4.588;2023-07-08T12:01:00;5.78;;;5.18;;
26908;SDS011;14477;51.038;4.588;2023-07-08T12:03:39;5.80;;;5.28;;
26908;SDS011;14477;51.038;4.588;2023-07-08T12:08:53;6.30;;;5.72;;
26908;SDS011;14477;51.038;4.588;2023-07-08T12:11:24;6.00;;;5.40;;
26908;SDS011;14477;51.038;4.588;2023-07-08T12:13:53;5.85;;;5.35;;
26908;SDS011;14477;51.038;4.588;2023-07-08T12:16:21;6.32;;;5.72;;
26908;SDS011;14477;51.038;4.588;2023-07-08T12:18:47;6.03;;;5.53;;
26908;SDS011;14477;51.038;4.588;2023-07-08T12:21:14;7.72;;;5.70;;
26908;SDS011;14477;51.038;4.588;2023-07-08T12:23:44;6.13;;;5.63;;
26908;SDS011;14477;51.038;4.588;2023-07-08T12:26:11;5.37;;;4.87;;
26908;SDS011;14477;51.038;4.588;2023-07-08T12:28:40;5.30;;;4.80;;
26908;SDS011;14477;51.038;4.588;2023-07-08T12:31:14;5.72;;;5.22;;
26908;SDS011;14477;51.038;4.588;2023-07-08T12:33:45;6.18;;;5.57;;
26908;SDS011;14477;51.038;4.588;2023-07-08T12:36:13;5.37;;;4.90;;
26908;SDS011;14477;51.038;4.588;2023-07-08T12:38:52;6.18;;;5.53;;
26908;SDS011;14477;51.038;4.588;2023-07-08T12:41:24;5.97;;;5.35;;
26908;SDS011;14477;51.038;4.588;2023-07-08T12:43:53;5.45;;;4.95;;
26908;SDS011;14477;51.038;4.588;2023-07-08T12:46:20;5.80;;;5.28;;
26908;SDS011;14477;51.038;4.588;2023-07-08T12:48:47;5.63;;;5.10;;
26908;SDS011;14477;51.038;4.588;2023-07-08T12:51:17;5.13;;;4.63;;
26908;SDS011;14477;51.038;4.588;2023-07-08T12:53:49;5.20;;;4.70;;
26908;SDS011;14477;51.038;4.588;2023-07-08T12:56:15;5.05;;;4.65;;
26908;SDS011;14477;51.038;4.588;2023-07-08T12:58:43;5.53;;;4.88;;
26908;SDS011;14477;51.038;4.588;2023-07-08T13:01:20;4.77;;;4.23;;
26908;SDS011;14477;51.038;4.588;2023-07-08T13:03:52;4.97;;;4.47;;
26908;SDS011;14477;51.038;4.588;2023-07-08T13:06:27;5.10;;;4.60;;
26908;SDS011;14477;51.038;4.588;2023-07-08T13:09:01;4.70;;;4.22;;
26908;SDS011;14477;51.038;4.588;2023-07-08T13:11:34;4.90;;;4.40;;
26908;SDS011;14477;51.038;4.588;2023-07-08T13:14:03;5.43;;;4.17;;
26908;SDS011;14477;51.038;4.588;2023-07-08T13:19:47;4.63;;;3.80;;
26908;SDS011;14477;51.038;4.588;2023-07-08T13:22:18;4.82;;;3.30;;
26908;SDS011;14477;51.038;4.588;2023-07-08T13:24:45;6.45;;;3.33;;
26908;SDS011;14477;51.038;4.588;2023-07-08T13:27:23;6.07;;;2.93;;
26908;SDS011;14477;51.038;4.588;2023-07-08T13:29:56;5.78;;;2.78;;
26908;SDS011;14477;51.038;4.588;2023-07-08T13:32:42;3.22;;;2.20;;
26908;SDS011;14477;51.038;4.588;2023-07-08T13:35:21;4.63;;;2.20;;
26908;SDS011;14477;51.038;4.588;2023-07-08T13:37:48;4.87;;;2.10;;
26908;SDS011;14477;51.038;4.588;2023-07-08T13:40:15;8.50;;;3.00;;
26908;SDS011;14477;51.038;4.588;2023-07-08T13:42:51;2.95;;;1.85;;
26908;SDS011;14477;51.038;4.588;2023-07-08T13:45:19;3.38;;;1.75;;
26908;SDS011;14477;51.038;4.588;2023-07-08T13:50:49;4.10;;;2.00;;
26908;SDS011;14477;51.038;4.588;2023-07-08T13:53:25;5.22;;;2.20;;
26908;SDS011;14477;51.038;4.588;2023-07-08T13:56:00;3.28;;;1.73;;
26908;SDS011;14477;51.038;4.588;2023-07-08T13:58:29;3.08;;;1.80;;
26908;SDS011;14477;51.038;4.588;2023-07-08T14:00:56;3.67;;;2.00;;
26908;SDS011;14477;51.038;4.588;2023-07-08T14:03:22;2.90;;;1.83;;
26908;SDS011;14477;51.038;4.588;2023-07-08T14:05:49;2.53;;;1.70;;
26908;SDS011;14477;51.038;4.588;2023-07-08T14:08:15;3.35;;;2.30;;
26908;SDS011;14477;51.038;4.588;2023-07-08T14:10:43;3.53;;;1.88;;
26908;SDS011;14477;51.038;4.588;2023-07-08T14:13:09;2.70;;;1.63;;
26908;SDS011;14477;51.038;4.588;2023-07-08T14:15:36;3.43;;;1.60;;
26908;SDS011;14477;51.038;4.588;2023-07-08T14:18:03;3.65;;;1.67;;
26908;SDS011;14477;51.038;4.588;2023-07-08T14:20:30;2.30;;;1.60;;
26908;SDS011;14477;51.038;4.588;2023-07-08T14:22:56;3.22;;;1.70;;
26908;SDS011;14477;51.038;4.588;2023-07-08T14:25:22;3.30;;;1.60;;
26908;SDS011;14477;51.038;4.588;2023-07-08T14:27:49;4.75;;;2.20;;
26908;SDS011;14477;51.038;4.588;2023-07-08T14:30:15;3.05;;;1.90;;
26908;SDS011;14477;51.038;4.588;2023-07-08T14:32:41;3.60;;;1.90;;
26908;SDS011;14477;51.038;4.588;2023-07-08T14:37:41;3.40;;;2.17;;
26908;SDS011;14477;51.038;4.588;2023-07-08T14:40:24;4.28;;;1.98;;
26908;SDS011;14477;51.038;4.588;2023-07-08T14:42:54;2.47;;;1.70;;
26908;SDS011;14477;51.038;4.588;2023-07-08T14:45:25;3.78;;;1.90;;
26908;SDS011;14477;51.038;4.588;2023-07-08T14:47:51;3.30;;;1.85;;
26908;SDS011;14477;51.038;4.588;2023-07-08T14:50:17;3.90;;;2.73;;
26908;SDS011;14477;51.038;4.588;2023-07-08T14:52:42;3.67;;;2.10;;
26908;SDS011;14477;51.038;4.588;2023-07-08T14:55:08;2.97;;;2.00;;
26908;SDS011;14477;51.038;4.588;2023-07-08T14:57:39;2.95;;;2.08;;
26908;SDS011;14477;51.038;4.588;2023-07-08T15:00:12;3.47;;;2.00;;
26908;SDS011;14477;51.038;4.588;2023-07-08T15:02:41;3.97;;;2.30;;
26908;SDS011;14477;51.038;4.588;2023-07-08T15:05:18;4.07;;;2.90;;
26908;SDS011;14477;51.038;4.588;2023-07-08T15:07:49;2.75;;;2.22;;
26908;SDS011;14477;51.038;4.588;2023-07-08T15:10:16;3.22;;;2.28;;
26908;SDS011;14477;51.038;4.588;2023-07-08T15:12:43;3.25;;;2.40;;
26908;SDS011;14477;51.038;4.588;2023-07-08T15:15:13;3.83;;;2.40;;
26908;SDS011;14477;51.038;4.588;2023-07-08T15:17:47;3.70;;;2.30;;
26908;SDS011;14477;51.038;4.588;2023-07-08T15:20:14;4.68;;;2.50;;
26908;SDS011;14477;51.038;4.588;2023-07-08T15:22:43;4.28;;;2.55;;
26908;SDS011;14477;51.038;4.588;2023-07-08T15:25:12;3.17;;;2.08;;
26908;SDS011;14477;51.038;4.588;2023-07-08T15:27:40;4.17;;;1.97;;
26908;SDS011;14477;51.038;4.588;2023-07-08T15:30:18;2.85;;;1.80;;
26908;SDS011;14477;51.038;4.588;2023-07-08T15:32:45;2.83;;;2.03;;
26908;SDS011;14477;51.038;4.588;2023-07-08T15:35:16;5.50;;;2.20;;
26908;SDS011;14477;51.038;4.588;2023-07-08T15:37:46;4.38;;;3.10;;
26908;SDS011;14477;51.038;4.588;2023-07-08T15:40:15;3.77;;;2.40;;
26908;SDS011;14477;51.038;4.588;2023-07-08T15:42:42;2.92;;;2.03;;
26908;SDS011;14477;51.038;4.588;2023-07-08T15:45:23;3.90;;;2.65;;
26908;SDS011;14477;51.038;4.588;2023-07-08T15:47:54;3.97;;;2.22;;
26908;SDS011;14477;51.038;4.588;2023-07-08T15:50:24;3.20;;;2.38;;
26908;SDS011;14477;51.038;4.588;2023-07-08T15:52:51;2.50;;;2.10;;
26908;SDS011;14477;51.038;4.588;2023-07-08T15:55:19;4.22;;;2.40;;
26908;SDS011;14477;51.038;4.588;2023-07-08T15:58:05;3.15;;;2.30;;
26908;SDS011;14477;51.038;4.588;2023-07-08T16:00:36;3.55;;;2.30;;
26908;SDS011;14477;51.038;4.588;2023-07-08T16:03:05;3.03;;;2.10;;
26908;SDS011;14477;51.038;4.588;2023-07-08T16:05:34;3.53;;;2.30;;
26908;SDS011;14477;51.038;4.588;2023-07-08T16:08:01;3.15;;;2.00;;
26908;SDS011;14477;51.038;4.588;2023-07-08T16:10:30;3.88;;;2.38;;
26908;SDS011;14477;51.038;4.588;2023-07-08T16:12:58;3.65;;;2.35;;
26908;SDS011;14477;51.038;4.588;2023-07-08T16:15:27;4.37;;;2.20;;
26908;SDS011;14477;51.038;4.588;2023-07-08T16:17:57;2.97;;;2.27;;
26908;SDS011;14477;51.038;4.588;2023-07-08T16:20:24;3.20;;;2.00;;
26908;SDS011;14477;51.038;4.588;2023-07-08T16:22:51;4.85;;;2.55;;
26908;SDS011;14477;51.038;4.588;2023-07-08T16:25:18;4.07;;;2.30;;
26908;SDS011;14477;51.038;4.588;2023-07-08T16:27:48;2.90;;;2.10;;
26908;SDS011;14477;51.038;4.588;2023-07-08T16:30:19;3.13;;;2.35;;